METAR Formatted Surface Weather Observation
Issued by NWS

Home | Current Version | Previous Version | Text Only | Print | Product List | Glossary On
Versions: 1 2 3 4 5 6 7 8 9 10 11 12 13 14 15 16 17 18 19 20 21 22 23 24 25 26 27 28 29 30 31
000
SAUS45 KPSR 272357
MTRFHU
METAR KFHU 272356Z AUTO 11007KT 10SM CLR 19/M08 A3024 RMK AO2 SLP205
T01941083 10228 20194 56005 $



USA.gov is the U.S. government's official web portal to all federal, state and local government web resources and services.